Data for 08/18/2014

Time Sea-Level Adjusted Pressure Absolute Pressure Temperature Relative Humidity Dew Point   
(mb) (inHg) (mb) (inHg) (C) (F) (%) (C) (F)
00:05 1022 30.18 852 25.16 15.7 60.3 50 5.6 42
00:10 1022 30.18 852 25.16 15.6 60.1 50 5.4 41.6
00:15 1022 30.18 852 25.16 15.7 60.2 51 5.7 42.3
00:20 1022 30.18 851 25.13 15.6 60.1 51 5.6 42.1
00:25 1022 30.18 851 25.13 15.5 59.8 52 5.6 42.1
00:30 1022 30.18 851 25.13 15.5 59.8 51 5.4 41.7
00:35 1022 30.18 851 25.13 15.7 60.2 50 5.5 41.8
00:40 1022 30.18 851 25.13 15.7 60.2 51 5.6 42.1
00:45 1022 30.18 851 25.13 15.5 59.8 54 6.3 43.3
00:50 1022 30.18 851 25.13 15.4 59.7 52 5.7 42.3
00:55 1022 30.18 851 25.13 15.2 59.3 53 5.6 42.2
01:00 1022 30.18 851 25.13 15 59 54 5.9 42.7
01:05 1022 30.18 851 25.13 14.8 58.7 54 5.6 42.1
01:10 1022 30.18 851 25.13 14.8 58.7 55 5.8 42.5
01:15 1022 30.18 851 25.13 14.7 58.4 54 5.4 41.8
01:20 1022 30.18 851 25.13 15.1 59.1 51 5 41
01:25 1022 30.18 851 25.13 15.5 59.8 50 5.2 41.4
01:30 1022 30.18 851 25.13 15.3 59.5 52 5.5 42
01:35 1022 30.18 851 25.13 14.9 58.8 53 5.4 41.8
01:40 1022 30.18 851 25.13 14.7 58.5 53 5.4 41.7
01:45 1022 30.18 851 25.13 14.7 58.5 53 5.4 41.7
01:50 1022 30.18 851 25.13 14.7 58.4 53 5.4 41.7
01:55 1022 30.18 851 25.13 14.7 58.4 54 5.5 41.9
02:00 1022 30.18 851 25.13 14.7 58.5 53 5.4 41.8
02:05 1022 30.18 851 25.13 14.9 58.8 53 5.6 42
02:10 1022 30.18 851 25.13 14.9 58.8 54 5.7 42.3
02:15 1022 30.18 851 25.13 14.7 58.5 54 5.7 42.2
02:20 1022 30.18 851 25.13 14.5 58.2 55 5.6 42
02:25 1022 30.18 851 25.13 14.4 57.9 55 5.6 42.2
02:30 1022 30.18 851 25.13 14.1 57.3 56 5.5 42
02:35 1022 30.18 851 25.13 14 57.2 55 5.2 41.4
02:40 1022 30.18 851 25.13 14.1 57.4 55 5.3 41.6
02:45 1022 30.18 851 25.13 14.4 57.9 55 5.6 42
02:50 1022 30.18 851 25.13 14.4 58 55 5.6 42.1
02:55 1022 30.18 851 25.13 14.5 58.2 55 5.6 42.1
03:00 1022 30.18 851 25.13 15 58.9 54 5.8 42.4
03:05 1022 30.18 851 25.13 15 59 54 5.8 42.5
03:10 1022 30.18 851 25.13 14.9 58.8 55 6.1 43
03:15 1022 30.18 851 25.13 14.8 58.7 56 6.2 43.1
03:20 1022 30.18 851 25.13 14.7 58.5 56 6.3 43.3
03:25 1022 30.18 851 25.13 14.7 58.5 57 6.2 43.2
03:30 1022 30.18 851 25.13 14.5 58.2 57 6.2 43.2
03:35 1022 30.18 851 25.13 14.5 58 57 6 42.9
03:40 1022 30.18 851 25.13 14.4 57.8 57 5.9 42.7
03:45 1022 30.18 851 25.13 14.3 57.7 57 5.8 42.5
03:50 1022 30.18 851 25.13 14.1 57.5 56 5.6 42
03:55 1022 30.18 851 25.13 14.1 57.4 56 5.6 42
04:00 1022 30.18 851 25.13 14.1 57.4 56 5.5 41.9
04:05 1022 30.18 851 25.13 14.4 57.9 56 5.8 42.5
04:10 1022 30.18 851 25.13 14.4 57.8 56 5.7 42.2
04:15 1022 30.18 851 25.13 14 57.1 57 5.6 42.1
04:20 1022 30.18 851 25.13 13.7 56.6 58 5.7 42.2
04:25 1022 30.18 851 25.13 13.6 56.4 59 5.8 42.4
04:30 1022 30.18 851 25.13 13.3 55.9 59 5.5 42
04:35 1022 30.18 851 25.13 13.2 55.7 60 5.6 42
04:40 1022 30.18 851 25.13 13 55.3 60 5.5 41.9
04:45 1022 30.18 851 25.13 12.9 55.2 60 5.4 41.7
04:50 1022 30.18 851 25.13 13.1 55.6 59 5.3 41.6
04:55 1022 30.18 851 25.13 13.4 56.1 58 5.4 41.7
05:00 1022 30.18 851 25.13 13.6 56.5 56 5 41.1
05:05 1022 30.18 851 25.13 13.8 56.9 57 5.4 41.8
05:10 1022 30.18 851 25.13 13.5 56.2 59 5.6 42.1
05:15 1022 30.18 851 25.13 13.1 55.6 60 5.5 41.9
05:20 1022 30.18 851 25.13 13 55.5 59 5.3 41.5
05:25 1021 30.15 851 25.13 13.2 55.7 58 5.2 41.4
05:30 1022 30.18 851 25.13 13.2 55.8 58 5.3 41.6
05:35 1021 30.15 851 25.13 13 55.5 58 5.1 41.1
05:40 1022 30.18 851 25.13 12.8 55 61 5.5 41.9
05:45 1022 30.18 851 25.13 12.4 54.3 62 5.4 41.7
05:50 1022 30.18 851 25.13 12.3 54.1 62 5.2 41.4
05:55 1022 30.18 851 25.13 12.5 54.5 61 5.2 41.3
06:00 1022 30.18 851 25.13 12.7 54.9 60 5.2 41.4
06:05 1022 30.18 851 25.13 13.1 55.6 58 5.2 41.4
06:10 1022 30.18 851 25.13 13.4 56.1 58 5.3 41.5
06:15 1022 30.18 851 25.13 13.6 56.6 57 5.4 41.7
06:20 1022 30.18 851 25.13 13.7 56.6 57 5.3 41.6
06:25 1022 30.18 851 25.13 13.8 56.8 57 5.4 41.7
06:30 1022 30.18 851 25.13 13.7 56.7 57 5.4 41.8
06:35 1022 30.18 851 25.13 13.8 56.9 57 5.6 42.1
06:40 1022 30.18 851 25.13 13.7 56.7 57 5.5 41.9
06:45 1022 30.18 851 25.13 14.1 57.3 55 5.3 41.5
06:50 1022 30.18 851 25.13 14.6 58.2 54 5.4 41.7
06:55 1022 30.18 851 25.13 15 58.9 53 5.6 42.1
07:00 1022 30.18 851 25.13 15.2 59.4 53 5.6 42.2
07:05 1022 30.18 851 25.13 15.1 59.1 54 6 42.8
07:10 1022 30.18 851 25.13 15.3 59.5 53 5.9 42.6
07:15 1022 30.18 851 25.13 15.7 60.3 53 6.4 43.5
07:20 1022 30.18 851 25.13 16.1 61.1 52 6.5 43.6
07:25 1022 30.18 851 25.13 16.1 61 53 6.6 43.8
07:30 1022 30.18 851 25.13 16.1 61.1 52 6.5 43.7
07:35 1022 30.18 851 25.13 16.4 61.6 52 6.6 43.9
07:40 1022 30.18 851 25.13 16.7 62 51 6.6 43.9
07:45 1022 30.18 851 25.13 17.4 63.3 49 6.6 43.8
07:50 1022 30.18 851 25.13 18.3 64.9 45 6.2 43.1
07:55 1022 30.18 851 25.13 19 66.1 43 6.1 43.1
08:00 1021 30.15 851 25.13 19.5 67 41 6.1 42.9
08:05 1021 30.15 851 25.13 19.5 67.2 41 5.9 42.7
08:10 1021 30.15 851 25.13 19.9 67.8 37 5 41.1
08:15 1021 30.15 851 25.13 19.9 67.9 39 5.8 42.5
08:20 1021 30.15 851 25.13 19.7 67.4 41 6.1 42.9
08:25 1021 30.15 851 25.13 19.6 67.2 39 5.4 41.8
08:30 1021 30.15 851 25.13 20.1 68.2 39 5.8 42.4
08:35 1021 30.15 851 25.13 20.5 68.9 37 5.5 41.8
08:40 1021 30.15 851 25.13 20.5 68.8 37 5.3 41.6
08:45 1021 30.15 850 25.1 20.7 69.3 35 5.1 41.1
08:50 1021 30.15 850 25.1 20 68.1 39 5.7 42.3
08:55 1021 30.15 850 25.1 19.8 67.6 38 5.3 41.5
09:00 1021 30.15 850 25.1 20.6 69 36 5.3 41.5
09:05 1021 30.15 850 25.1 20.7 69.2 37 5.5 42
09:10 1021 30.15 850 25.1 20.7 69.3 38 6 42.7
09:15 1021 30.15 850 25.1 20.4 68.7 39 6 42.8
09:20 1021 30.15 850 25.1 20.2 68.4 38 5.7 42.3
09:25 1021 30.15 850 25.1 20.8 69.5 37 5.8 42.5
09:30 1021 30.15 850 25.1 21.9 71.3 36 6.3 43.3
09:35 1021 30.15 850 25.1 22.1 71.7 34 5.7 42.3
09:40 1021 30.15 850 25.1 22.7 72.9 33 5.9 42.7
09:45 1021 30.15 850 25.1 23.2 73.8 32 5.9 42.5
09:50 1021 30.15 850 25.1 23.5 74.3 32 6.3 43.3
09:55 1021 30.15 850 25.1 23.4 74.2 32 6 42.8
10:00 1021 30.15 850 25.1 23.6 74.4 33 6.4 43.6
10:05 1021 30.15 850 25.1 22.9 73.2 33 6 42.8
10:10 1021 30.15 850 25.1 23.2 73.8 32 5.7 42.3
10:15 1021 30.15 850 25.1 23.2 73.7 33 6.1 43
10:20 1021 30.15 850 25.1 23.4 74.1 32 5.9 42.6
10:25 1021 30.15 850 25.1 23.6 74.6 31 5.7 42.2
10:30 1021 30.15 850 25.1 24 75.1 32 6.3 43.4
10:35 1021 30.15 850 25.1 24.2 75.6 32 6.7 44.1
10:40 1021 30.15 850 25.1 24.2 75.5 31 6.2 43.2
10:45 1021 30.15 850 25.1 24.6 76.3 30 6.3 43.4
10:50 1021 30.15 850 25.1 24.2 75.6 32 6.7 44
10:55 1020 30.12 850 25.1 24.7 76.5 30 6.3 43.3
11:00 1020 30.12 850 25.1 24.9 76.8 29 6 42.8
11:05 1020 30.12 850 25.1 24.6 76.3 31 6.6 43.9
11:10 1020 30.12 849 25.07 25.4 77.8 28 6 42.8
11:15 1020 30.12 849 25.07 25.6 78.1 27 5.3 41.5
11:20 1020 30.12 849 25.07 25 76.9 29 6 42.9
11:25 1020 30.12 849 25.07 24.4 75.8 29 5.5 41.9
11:30 1020 30.12 849 25.07 24.2 75.6 27 4.5 40.1
11:35 1020 30.12 849 25.07 25.4 77.7 27 5.4 41.8
11:40 1020 30.12 849 25.07 25.2 77.3 29 6.1 43
11:45 1020 30.12 849 25.07 25.4 77.7 27 5.3 41.5
11:50 1020 30.12 849 25.07 25.5 77.9 27 5.5 41.9
11:55 1020 30.12 849 25.07 26.3 79.3 25 4.9 40.8
12:00 1020 30.12 849 25.07 26.4 79.5 26 5.5 42
12:05 1020 30.12 849 25.07 26.2 79.2 25 4.8 40.6
12:10 1020 30.12 849 25.07 25.7 78.3 27 5.4 41.8
12:15 1019 30.09 849 25.07 25.8 78.4 24 4.2 39.6
12:20 1019 30.09 849 25.07 26.2 79.1 23 4 39.1
12:25 1019 30.09 848 25.04 26.7 80.1 23 3.9 39
12:30 1019 30.09 848 25.04 27 80.5 22 3.7 38.7
12:35 1019 30.09 848 25.04 27.5 81.4 21 3.2 37.8
12:40 1019 30.09 848 25.04 27.3 81.1 21 3.6 38.5
12:45 1019 30.09 848 25.04 27.4 81.2 20 3 37.4
12:50 1019 30.09 848 25.04 27.7 81.9 19 2.5 36.5
12:55 1019 30.09 848 25.04 27.5 81.4 19 2 35.7
13:00 1019 30.09 848 25.04 27.8 82 20 3.1 37.5
13:05 1019 30.09 848 25.04 27.6 81.7 21 3.8 38.8
13:10 1019 30.09 848 25.04 27.4 81.4 20 3.1 37.5
13:15 1019 30.09 848 25.04 27.9 82.3 21 3.7 38.6
13:20 1019 30.09 848 25.04 27.9 82.2 19 2.7 36.9
13:25 1019 30.09 848 25.04 27.8 82 20 3 37.4
13:30 1019 30.09 848 25.04 27.1 80.7 21 3.4 38.1
13:35 1018 30.06 848 25.04 26.1 79 22 2.9 37.2
13:40 1018 30.06 848 25.04 26.4 79.5 21 2.9 37.1
13:45 1018 30.06 848 25.04 26.4 79.5 21 2.8 37.1
13:50 1018 30.06 847 25.01 27.3 81.1 19 2.2 36
13:55 1018 30.06 847 25.01 26.5 79.7 21 2.7 36.9
14:00 1018 30.06 847 25.01 26.9 80.4 20 2.5 36.5
14:05 1018 30.06 847 25.01 28 82.3 19 2.8 37.1
14:10 1018 30.06 847 25.01 28.3 83 19 2.6 36.7
14:15 1018 30.06 847 25.01 28.2 82.8 20 3.5 38.2
14:20 1018 30.06 847 25.01 28.4 83.2 19 3.2 37.8
14:25 1018 30.06 847 25.01 28.1 82.6 20 3.6 38.4
14:30 1018 30.06 847 25.01 28 82.5 21 3.9 39
14:35 1018 30.06 847 25.01 28.2 82.8 20 3.5 38.3
14:40 1018 30.06 847 25.01 28.7 83.6 20 3.5 38.3
14:45 1018 30.06 847 25.01 28.5 83.3 20 3.6 38.5
14:50 1018 30.06 847 25.01 27.4 81.3 22 4.1 39.4
14:55 1018 30.06 847 25.01 28 82.3 21 4 39.2
15:00 1017 30.03 847 25.01 28.5 83.3 20 3.5 38.3
15:05 1017 30.03 847 25.01 28.9 84 19 3.4 38.1
15:10 1017 30.03 847 25.01 28.8 83.9 19 2.9 37.2
15:15 1017 30.03 847 25.01 29.3 84.7 19 3.8 38.8
15:20 1017 30.03 847 25.01 29.3 84.7 20 4.1 39.4
15:25 1017 30.03 847 25.01 28.6 83.5 20 3.5 38.3
15:30 1017 30.03 846 24.98 28.1 82.6 21 4 39.2
15:35 1017 30.03 846 24.98 28.1 82.5 20 3.3 38
15:40 1017 30.03 846 24.98 28.1 82.5 20 3.6 38.4
15:45 1017 30.03 846 24.98 28.4 83 20 3.2 37.8
15:50 1017 30.03 846 24.98 28.3 83 19 3.1 37.6
15:55 1017 30.03 846 24.98 27.7 81.9 20 2.9 37.2
16:00 1017 30.03 846 24.98 28.1 82.6 20 3.2 37.8
16:05 1017 30.03 846 24.98 28.7 83.6 19 3.1 37.5
16:10 1017 30.03 846 24.98 28.7 83.7 19 3.4 38.1
16:15 1017 30.03 846 24.98 27.7 81.8 20 2.8 37
16:20 1017 30.03 846 24.98 27.5 81.5 20 2.9 37.2
16:25 1017 30.03 846 24.98 27.9 82.3 19 2.8 37.1
16:30 1017 30.03 846 24.98 27.7 81.9 20 2.9 37.3
16:35 1017 30.03 846 24.98 28.3 83 19 2.9 37.3
16:40 1017 30.03 846 24.98 28.7 83.7 18 2.4 36.3
16:45 1017 30.03 846 24.98 28.7 83.7 19 2.8 37.1
16:50 1017 30.03 846 24.98 28.2 82.8 20 3.1 37.6
16:55 1017 30.03 846 24.98 27.6 81.7 20 3.1 37.5
17:00 1017 30.03 846 24.98 27.3 81.1 20 3 37.4
17:05 1016 30 846 24.98 27.5 81.4 20 2.5 36.5
17:10 1016 30 846 24.98 27.3 81.1 20 2.4 36.2
17:15 1016 30 846 24.98 27.6 81.6 20 2.7 36.8
17:20 1016 30 846 24.98 27.8 82 19 2.4 36.3
17:25 1016 30 846 24.98 27.7 81.8 20 2.8 37.1
17:30 1016 30 846 24.98 27.4 81.3 19 2.2 36
17:35 1016 30 846 24.98 27.2 81 19 1.7 35.1
17:40 1016 30 846 24.98 27.1 80.8 19 2.1 35.8
17:45 1016 30 846 24.98 27.5 81.5 19 2.1 35.7
17:50 1016 30 845 24.95 27.1 80.8 20 2.4 36.2
17:55 1016 30 845 24.95 26.9 80.4 21 2.8 37
18:00 1016 30 845 24.95 27 80.6 20 2.3 36.2
18:05 1016 30 845 24.95 26.9 80.4 20 2.6 36.6
18:10 1016 30 845 24.95 26.6 80 20 2.5 36.4
18:15 1016 30 845 24.95 26.4 79.6 21 2.5 36.6
18:20 1016 30 845 24.95 26.3 79.4 21 2.8 37
18:25 1016 30 845 24.95 26.2 79.1 21 2.3 36.1
18:30 1016 30 845 24.95 26 78.9 21 2.3 36.1
18:35 1016 30 845 24.95 25.9 78.6 21 2.4 36.4
18:40 1016 30 845 24.95 25.8 78.4 21 1.9 35.3
18:45 1016 30 845 24.95 25.7 78.2 22 2.7 36.8
18:50 1016 30 845 24.95 25.5 77.9 22 2.5 36.4
18:55 1016 30 845 24.95 25.3 77.5 23 2.7 36.9
19:00 1016 30 845 24.95 25.3 77.5 25 4 39.2
19:05 1016 30 845 24.95 25.3 77.5 28 5.6 42.1
19:10 1016 30 845 24.95 25.1 77.2 32 7.6 45.7
19:15 1016 30 845 24.95 24.3 75.7 37 8.8 47.9
19:20 1016 30 845 24.95 23.8 74.9 35 7.8 46.1
19:25 1016 30 845 24.95 22.6 72.7 47 10.8 51.4
19:30 1016 30 845 24.95 21.8 71.3 45 9.6 49.2
19:35 1016 30 845 24.95 21.7 71 44 9 48.2
19:40 1016 30 845 24.95 21.2 70.1 46 9.4 48.8
19:45 1016 30 845 24.95 20.5 69 53 10.8 51.4
19:50 1016 30 845 24.95 20.1 68.2 44 7.7 45.8
19:55 1016 30 846 24.98 20.3 68.5 44 7.8 46
20:00 1016 30 846 24.98 20.1 68.2 49 9.3 48.8
20:05 1016 30 846 24.98 19.7 67.4 47 8.3 46.9
20:10 1016 30 846 24.98 19.6 67.3 42 6.6 43.9
20:15 1016 30 846 24.98 20 67.9 39 5.8 42.5
20:20 1016 30 846 24.98 20.3 68.5 36 4.9 40.8
20:25 1016 30 846 24.98 20.4 68.8 37 5.5 41.9
20:30 1016 30 846 24.98 20.4 68.6 37 5.2 41.4
20:35 1016 30 846 24.98 20.4 68.7 36 4.9 40.9
20:40 1016 30 846 24.98 20.4 68.7 38 5.8 42.4
20:45 1016 30 846 24.98 20.3 68.5 37 5.2 41.3
20:50 1016 30 846 24.98 20.4 68.7 38 5.8 42.4
20:55 1016 30 846 24.98 20.3 68.5 37 5.4 41.7
21:00 1016 30 846 24.98 20.1 68.2 38 5.4 41.6
21:05 1016 30 846 24.98 20 68 38 5.3 41.5
21:10 1016 30 846 24.98 19.8 67.7 35 4.2 39.6
21:15 1016 30 846 24.98 20 68.1 36 4.6 40.2
21:20 1016 30 846 24.98 19.9 67.9 36 4.4 39.9
21:25 1016 30 846 24.98 20 68 35 4.1 39.5
21:30 1016 30 846 24.98 20 68 37 5 41
21:35 1016 30 846 24.98 19.6 67.3 37 4.8 40.7
21:40 1016 30 846 24.98 19.4 66.9 38 4.9 40.7
21:45 1016 30 846 24.98 19.3 66.7 39 5 41
21:50 1016 30 846 24.98 19 66.2 44 6.6 44
21:55 1016 30 846 24.98 18.7 65.7 40 5.1 41.1
22:00 1016 30 846 24.98 18.8 65.8 39 4.7 40.5
22:05 1016 30 846 24.98 18.7 65.7 38 4.4 40
22:10 1016 30 846 24.98 18.7 65.7 39 4.7 40.5
22:15 1016 30 846 24.98 18.8 65.9 37 4.1 39.3
22:20 1016 30 845 24.95 19.2 66.5 35 3.6 38.5
22:25 1016 30 845 24.95 19.3 66.8 37 4.6 40.2
22:30 1016 30 845 24.95 19 66.3 41 5.8 42.4
22:35 1016 30 845 24.95 18.6 65.5 42 5.5 41.8
22:40 1016 30 845 24.95 18.2 64.8 45 6.2 43.1
22:45 1016 30 845 24.95 17.4 63.4 48 6.5 43.8
22:50 1016 30 845 24.95 17 62.5 48 6.1 43
22:55 1016 30 845 24.95 16.9 62.4 48 5.8 42.5
23:00 1016 30 845 24.95 17 62.5 48 6 42.8
23:05 1016 30 845 24.95 17 62.7 47 5.7 42.3
23:10 1016 30 845 24.95 16.9 62.5 48 6 42.8
23:15 1016 30 845 24.95 16.6 61.8 49 6 42.7
23:20 1016 30 845 24.95 16.5 61.7 49 5.9 42.6
23:25 1016 30 845 24.95 16.5 61.8 48 5.6 42
23:30 1016 30 845 24.95 16.7 62 46 5.3 41.5
23:35 1016 30 845 24.95 16.8 62.2 46 5.2 41.3
23:40 1016 30 845 24.95 16.9 62.3 45 4.9 40.8
23:45 1016 30 845 24.95 17 62.5 44 4.9 40.8
23:50 1016 30 845 24.95 16.9 62.4 45 4.9 40.8
23:55 1016 30 845 24.95 16.8 62.3 44 4.8 40.6
24:00 1016 30 845 24.95 16.9 62.3 44 4.8 40.6